HISTORICAL SENSOR DATA

Sensor Data Report

DB LIVE
CURRENT TIME--:--:--
DEVICE NETWORK Gateway Status
13 ESP · realtime ~1s · history 60s
Weather WS-MOD-01
ONLINE
Actuator ACT-MOD-01
OFFLINE
Mainboard L3 MB-L3-01
ONLINE
Mainboard L5 MB-L5-01
ONLINE
Remote AC AC-REMOTE-01
ONLINE
PZEM L3-01 PWR-L3-01
OFFLINE
PZEM L3-02 PWR-L3-02
OFFLINE
PZEM L3-03 PWR-L3-03
OFFLINE
PZEM L3-04 PWR-L3-04
OFFLINE
PZEM L5-01 PWR-L5-01
ONLINE
PZEM L5-02 PWR-L5-02
ONLINE
PZEM L5-03 PWR-L5-03
OFFLINE
PZEM L5-04 PWR-L5-04
OFFLINE
REPORT FILTER

Periode & Sensor

DATABASE HISTORY
RESET
QUICK RANGE Hari ini 7 hari 30 hari
PERIODE09 Aug 2026sampai 07 Sep 2026
TOTAL DATA95,938sensor readings
MINIMUM-0.50sesuai filter
AVERAGE73.26sesuai filter
MAXIMUM32,564.20sesuai filter
REPORT RESULT

Data Sensor

09/08/2026 — 07/09/2026 EXPORT CSV
NOTANGGALWAKTUDEVICECHANNELSENSORVALUEUNIT
301 07/09/2026 06:52:00 PWR-L5-02Power Meter L5 PZEM 02 PZEM-L5-02-CURR PZEM L5-02 Current 0.00 A
302 07/09/2026 06:52:00 PWR-L5-01Power Meter L5 PZEM 01 PZEM-L5-01-POWER PZEM L5-01 Active Power 10.50 W
303 07/09/2026 06:52:00 MB-L5-01Mainboard Lantai 5 L5-AI-06 Analog Input 6 3.05 V
304 07/09/2026 06:52:00 PWR-L5-02Power Meter L5 PZEM 02 PZEM-L5-02-VOLT PZEM L5-02 Voltage 224.80 V
305 07/09/2026 06:52:00 MB-L5-01Mainboard Lantai 5 L5-AI-01 Analog Input 1 3.05 V
306 07/09/2026 06:52:00 MB-L5-01Mainboard Lantai 5 L5-BGT-02 Black Globe Temperature 2 26.40 °C
307 07/09/2026 06:52:00 MB-L3-01Mainboard Lantai 3 L3-AI-03 Analog Input 3 3.12 V
308 07/09/2026 06:52:00 MB-L5-01Mainboard Lantai 5 L5-SHT-01-T SHT20 1 Temperature 28.20 °C
309 07/09/2026 06:52:00 MB-L5-01Mainboard Lantai 5 L5-HFT-02 Heat Flow Temperature 2 23.60 °C
310 07/09/2026 06:52:00 PWR-L5-01Power Meter L5 PZEM 01 PZEM-L5-01-PF PZEM L5-01 Power Factor 0.41
311 07/09/2026 06:52:00 MB-L5-01Mainboard Lantai 5 L5-SHT-03-RH SHT20 3 Humidity 46.30 %RH
312 07/09/2026 06:52:00 MB-L5-01Mainboard Lantai 5 L5-SHT-01-RH SHT20 1 Humidity 46.40 %RH
313 07/09/2026 06:52:00 WS-MOD-01Weather Station Module WS-DIR Arah Angin 80.90 °
314 07/09/2026 06:52:00 MB-L3-01Mainboard Lantai 3 L3-LUX-01 Illuminance / LUX 1 334.80 lux
315 07/09/2026 06:52:00 MB-L5-01Mainboard Lantai 5 L5-AI-03 Analog Input 3 3.05 V
316 07/09/2026 06:52:00 MB-L5-01Mainboard Lantai 5 L5-LUX-04 Illuminance / LUX 4 336.10 lux
317 07/09/2026 06:52:00 MB-L3-01Mainboard Lantai 3 L3-RAD-02 Radiation 2 2.00 W/m²
318 07/09/2026 06:52:00 MB-L3-01Mainboard Lantai 3 L3-SHT-03-RH SHT20 3 Humidity 46.10 %RH
319 07/09/2026 06:52:00 PWR-L5-01Power Meter L5 PZEM 01 PZEM-L5-01-VOLT PZEM L5-01 Voltage 224.90 V
320 07/09/2026 06:52:00 MB-L3-01Mainboard Lantai 3 L3-AI-05 Analog Input 5 3.12 V
321 07/09/2026 06:52:00 MB-L3-01Mainboard Lantai 3 L3-SHT-02-T SHT20 2 Temperature 28.30 °C
322 07/09/2026 06:52:00 WS-MOD-01Weather Station Module WS-PRES Tekanan Udara 912.00 hPa
323 07/09/2026 06:52:00 PWR-L5-01Power Meter L5 PZEM 01 PZEM-L5-01-ENERGY PZEM L5-01 Energy 0.13 kWh
324 07/09/2026 06:52:00 MB-L5-01Mainboard Lantai 5 L5-ST-01 Surface Temperature 1 24.10 °C
325 07/09/2026 06:52:00 WS-MOD-01Weather Station Module WS-RH Kelembapan Udara 77.10 %RH
326 07/09/2026 06:52:00 MB-L5-01Mainboard Lantai 5 L5-AI-05 Analog Input 5 3.05 V
327 07/09/2026 06:52:00 MB-L3-01Mainboard Lantai 3 L3-AI-02 Analog Input 2 3.12 V
328 07/09/2026 06:52:00 MB-L5-01Mainboard Lantai 5 L5-BGT-01 Black Globe Temperature 1 26.50 °C
329 07/09/2026 06:52:00 MB-L5-01Mainboard Lantai 5 L5-SHT-02-T SHT20 2 Temperature 28.50 °C
330 07/09/2026 06:52:00 WS-MOD-01Weather Station Module WS-TEMP Suhu Udara 19.40 °C
331 07/09/2026 06:52:00 MB-L3-01Mainboard Lantai 3 L3-LUX-06 Illuminance / LUX 6 875.30 lux
332 07/09/2026 06:52:00 MB-L5-01Mainboard Lantai 5 L5-HFT-01 Heat Flow Temperature 1 24.00 °C
333 07/09/2026 06:52:00 MB-L3-01Mainboard Lantai 3 L3-LUX-04 Illuminance / LUX 4 331.70 lux
334 07/09/2026 06:52:00 WS-MOD-01Weather Station Module WS-WIND Kecepatan Angin 9.07 m/s
335 07/09/2026 06:52:00 MB-L3-01Mainboard Lantai 3 L3-RAD-01 Radiation 1 2.00 W/m²
336 07/09/2026 06:52:00 MB-L3-01Mainboard Lantai 3 L3-SHT-03-T SHT20 3 Temperature 28.20 °C
337 07/09/2026 06:52:00 MB-L3-01Mainboard Lantai 3 L3-LUX-05 Illuminance / LUX 5 2,712.60 lux
338 07/09/2026 06:51:00 MB-L5-01Mainboard Lantai 5 L5-LUX-03 Illuminance / LUX 3 517.90 lux
339 07/09/2026 06:51:00 MB-L3-01Mainboard Lantai 3 L3-AI-01 Analog Input 1 3.12 V
340 07/09/2026 06:51:00 PWR-L5-02Power Meter L5 PZEM 02 PZEM-L5-02-FREQ PZEM L5-02 Frequency 50.00 Hz
341 07/09/2026 06:51:00 MB-L3-01Mainboard Lantai 3 L3-SHT-02-RH SHT20 2 Humidity 46.10 %RH
342 07/09/2026 06:51:00 MB-L3-01Mainboard Lantai 3 L3-SHT-01-RH SHT20 1 Humidity 45.90 %RH
343 07/09/2026 06:51:00 MB-L5-01Mainboard Lantai 5 L5-RAD-02 Radiation 2 3.00 W/m²
344 07/09/2026 06:51:00 MB-L5-01Mainboard Lantai 5 L5-AI-04 Analog Input 4 3.05 V
345 07/09/2026 06:51:00 PWR-L5-02Power Meter L5 PZEM 02 PZEM-L5-02-ENERGY PZEM L5-02 Energy 0.04 kWh
346 07/09/2026 06:51:00 AC-REMOTE-01Remote AC AC-FAN AC Fan Speed 0.00 code
347 07/09/2026 06:51:00 AC-REMOTE-01Remote AC AC-POWER AC Power State 1.00 state
348 07/09/2026 06:51:00 AC-REMOTE-01Remote AC AC-MODE AC Operating Mode 1.00 code
349 07/09/2026 06:51:00 MB-L3-01Mainboard Lantai 3 L3-SHT-01-T SHT20 1 Temperature 28.40 °C
350 07/09/2026 06:51:00 MB-L5-01Mainboard Lantai 5 L5-LUX-02 Illuminance / LUX 2 1,618.30 lux
351 07/09/2026 06:51:00 MB-L5-01Mainboard Lantai 5 L5-LUX-06 Illuminance / LUX 6 522.70 lux
352 07/09/2026 06:51:00 AC-REMOTE-01Remote AC AC-SETPOINT AC Set Temperature 23.00 °C
353 07/09/2026 06:51:00 MB-L5-01Mainboard Lantai 5 L5-ST-02 Surface Temperature 2 23.70 °C
354 07/09/2026 06:51:00 MB-L5-01Mainboard Lantai 5 L5-LUX-01 Illuminance / LUX 1 364.00 lux
355 07/09/2026 06:51:00 PWR-L5-02Power Meter L5 PZEM 02 PZEM-L5-02-POWER PZEM L5-02 Active Power 0.00 W
356 07/09/2026 06:51:00 MB-L3-01Mainboard Lantai 3 L3-AI-06 Analog Input 6 3.12 V
357 07/09/2026 06:51:00 MB-L5-01Mainboard Lantai 5 L5-SHT-03-T SHT20 3 Temperature 28.40 °C
358 07/09/2026 06:51:00 PWR-L5-02Power Meter L5 PZEM 02 PZEM-L5-02-CURR PZEM L5-02 Current 0.00 A
359 07/09/2026 06:51:00 PWR-L5-01Power Meter L5 PZEM 01 PZEM-L5-01-POWER PZEM L5-01 Active Power 10.80 W
360 07/09/2026 06:51:00 MB-L5-01Mainboard Lantai 5 L5-AI-06 Analog Input 6 3.05 V
361 07/09/2026 06:51:00 PWR-L5-02Power Meter L5 PZEM 02 PZEM-L5-02-VOLT PZEM L5-02 Voltage 224.60 V
362 07/09/2026 06:51:00 MB-L5-01Mainboard Lantai 5 L5-AI-01 Analog Input 1 3.05 V
363 07/09/2026 06:51:00 MB-L5-01Mainboard Lantai 5 L5-BGT-02 Black Globe Temperature 2 26.40 °C
364 07/09/2026 06:51:00 MB-L3-01Mainboard Lantai 3 L3-AI-03 Analog Input 3 3.12 V
365 07/09/2026 06:51:00 MB-L5-01Mainboard Lantai 5 L5-SHT-01-T SHT20 1 Temperature 28.20 °C
366 07/09/2026 06:51:00 MB-L5-01Mainboard Lantai 5 L5-HFT-02 Heat Flow Temperature 2 23.50 °C
367 07/09/2026 06:51:00 PWR-L5-01Power Meter L5 PZEM 01 PZEM-L5-01-PF PZEM L5-01 Power Factor 0.41
368 07/09/2026 06:51:00 MB-L5-01Mainboard Lantai 5 L5-SHT-03-RH SHT20 3 Humidity 46.30 %RH
369 07/09/2026 06:51:00 MB-L5-01Mainboard Lantai 5 L5-SHT-01-RH SHT20 1 Humidity 46.40 %RH
370 07/09/2026 06:51:00 WS-MOD-01Weather Station Module WS-DIR Arah Angin 47.50 °
371 07/09/2026 06:51:00 MB-L3-01Mainboard Lantai 3 L3-LUX-01 Illuminance / LUX 1 328.00 lux
372 07/09/2026 06:51:00 MB-L5-01Mainboard Lantai 5 L5-AI-03 Analog Input 3 3.05 V
373 07/09/2026 06:51:00 MB-L5-01Mainboard Lantai 5 L5-LUX-04 Illuminance / LUX 4 329.70 lux
374 07/09/2026 06:51:00 MB-L3-01Mainboard Lantai 3 L3-RAD-02 Radiation 2 2.00 W/m²
375 07/09/2026 06:51:00 MB-L3-01Mainboard Lantai 3 L3-SHT-03-RH SHT20 3 Humidity 46.10 %RH
376 07/09/2026 06:51:00 PWR-L5-01Power Meter L5 PZEM 01 PZEM-L5-01-VOLT PZEM L5-01 Voltage 224.70 V
377 07/09/2026 06:51:00 MB-L3-01Mainboard Lantai 3 L3-AI-05 Analog Input 5 3.12 V
378 07/09/2026 06:51:00 MB-L3-01Mainboard Lantai 3 L3-SHT-02-T SHT20 2 Temperature 28.30 °C
379 07/09/2026 06:51:00 WS-MOD-01Weather Station Module WS-PRES Tekanan Udara 912.00 hPa
380 07/09/2026 06:51:00 PWR-L5-01Power Meter L5 PZEM 01 PZEM-L5-01-ENERGY PZEM L5-01 Energy 0.13 kWh
381 07/09/2026 06:51:00 MB-L5-01Mainboard Lantai 5 L5-ST-01 Surface Temperature 1 24.10 °C
382 07/09/2026 06:51:00 WS-MOD-01Weather Station Module WS-RH Kelembapan Udara 77.60 %RH
383 07/09/2026 06:51:00 MB-L5-01Mainboard Lantai 5 L5-AI-05 Analog Input 5 3.05 V
384 07/09/2026 06:51:00 MB-L3-01Mainboard Lantai 3 L3-AI-02 Analog Input 2 3.12 V
385 07/09/2026 06:51:00 MB-L5-01Mainboard Lantai 5 L5-BGT-01 Black Globe Temperature 1 26.40 °C
386 07/09/2026 06:51:00 MB-L5-01Mainboard Lantai 5 L5-SHT-02-T SHT20 2 Temperature 28.40 °C
387 07/09/2026 06:51:00 WS-MOD-01Weather Station Module WS-TEMP Suhu Udara 19.20 °C
388 07/09/2026 06:51:00 MB-L3-01Mainboard Lantai 3 L3-LUX-06 Illuminance / LUX 6 860.30 lux
389 07/09/2026 06:51:00 MB-L5-01Mainboard Lantai 5 L5-HFT-01 Heat Flow Temperature 1 24.10 °C
390 07/09/2026 06:51:00 MB-L3-01Mainboard Lantai 3 L3-LUX-04 Illuminance / LUX 4 325.40 lux
391 07/09/2026 06:51:00 WS-MOD-01Weather Station Module WS-WIND Kecepatan Angin 12.03 m/s
392 07/09/2026 06:51:00 MB-L3-01Mainboard Lantai 3 L3-RAD-01 Radiation 1 2.00 W/m²
393 07/09/2026 06:51:00 MB-L3-01Mainboard Lantai 3 L3-SHT-03-T SHT20 3 Temperature 28.40 °C
394 07/09/2026 06:51:00 MB-L3-01Mainboard Lantai 3 L3-LUX-05 Illuminance / LUX 5 2,652.10 lux
395 07/09/2026 06:51:00 MB-L5-01Mainboard Lantai 5 L5-LUX-05 Illuminance / LUX 5 1,043.70 lux
396 07/09/2026 06:51:00 PWR-L5-01Power Meter L5 PZEM 01 PZEM-L5-01-CURR PZEM L5-01 Current 0.12 A
397 07/09/2026 06:51:00 MB-L5-01Mainboard Lantai 5 L5-RAD-01 Radiation 1 2.00 W/m²
398 07/09/2026 06:51:00 MB-L5-01Mainboard Lantai 5 L5-AI-02 Analog Input 2 3.05 V
399 07/09/2026 06:51:00 MB-L5-01Mainboard Lantai 5 L5-BGT-03 Black Globe Temperature 3 26.20 °C
400 07/09/2026 06:51:00 MB-L3-01Mainboard Lantai 3 L3-AI-04 Analog Input 4 3.12 V
Menampilkan maksimal 100 data per halaman